Hovedside
METAR-TAF:

METAR-TAF

Lufthavner :

Uherské Hradiště, Tsjekkia

breddegrad: 49-01-46N, lengdegrad: 017-26-23E, høyde over havet: 177 m

Gjeldene værobservasjon

Denne rapporten ble laget for 1 time og 12 minutter siden, klokken 09:00 UTC
Vind 9 kt fra Sør, skiftende mellom Sør-sørøst og Sørvest
Temperatur 28°C
Luftfuktighet 48%
Trykk 1013 hPa
Sikt 10 km eller mer
ingen skyer under 1500 m og ingen bygeskyer

METAR: LKKU 190900Z 19009KT 150V230 CAVOK 28/16 Q1013

Tid: 12:12 (10:12 UTC)


TAF: fraværende

Værobservasjoner og værvarsel for over 4000 flyplasser (METAR- og TAF-rapporter).

Tilgjengelige stasjoner er representert av de røde og gule prikkene på kartet.

Hold musepekeren over prikken for å se navnet på stasjonen.

Klikk så for å se værobservasjoner og -varsler.

For å forandre kartet kan du klikke på den grønne knappen med svart kryss for å zoome inn, på den grønne knappen med strek for å zoome ut, eller på de grønne pilene for å se tilstøtende kart.


METAR-TAF: